Latest Coastal Weather Observations for Cape Byron

IDN60701

Issued at 1:51 am EST Monday 27 April 2015 (issued every 10 minutes, with the page automatically refreshed every 10 minutes)

About coastal observations | Map of coastal stations | Coastal observations for NSW | Marine services | Other Formats
Station Details ID: 058216 Name: CAPE BYRON AWS Lat: -28.64 Lon: 153.64 Height: 95.0 m
Data from the previous 72 hours. | See also: Recent months at Cape Byron
Date/Time
EST
Temp

°C
Wind Pressure Rain
since 9am
mm
Weather Cloud Vis
km
Sea
Height
m
Swell
Dir
 
Speed
knots
Gust
knots
hPa Trend Height
m
Period
s
Dir
27/01:30am 15.0 WSW 16 23 1014.4 - 0.0 - - - - - - -
27/01:00am 15.1 WSW 15 20 1014.6 - 0.0 - - - - - - -
27/12:30am 15.0 WSW 16 22 1014.5 - 0.0 - - - - - - -
27/12:00am 15.2 WSW 16 21 1014.3 - 0.0 - - - - - - -
 
Date/Time
EST
Temp

°C
Wind Pressure Rain
since 9am
mm
Weather Cloud Vis
km
Sea
Height
m
Swell
Dir
 
Speed
knots
Gust
knots
hPa Trend Height
m
Period
s
Dir
26/11:30pm 15.4 W 16 21 1014.7 - 0.0 - - - - - - -
26/11:00pm 15.9 W 16 22 1014.8 - 0.0 - - - - - - -
26/10:30pm 15.8 W 15 20 1014.8 - 0.0 - - - - - - -
26/10:00pm 15.8 W 13 19 1015.0 - 0.0 - - - - - - -
26/09:30pm 16.4 W 15 20 1015.1 - 0.0 - - - - - - -
26/09:00pm 16.5 W 14 20 1015.0 - 0.0 - - - - - - -
26/08:30pm 16.5 W 13 18 1014.4 - 0.0 - - - - - - -
26/08:00pm 16.7 W 12 16 1014.2 - 0.0 - - - - - - -
26/07:30pm 17.0 W 11 17 1013.8 - 0.0 - - - - - - -
26/07:00pm 16.9 WNW 9 13 1013.1 - 0.0 - - - - - - -
26/06:30pm 17.5 W 11 15 1012.7 - 0.0 - - - - - - -
26/06:00pm 17.4 WNW 7 10 1012.4 - 0.0 - - - - - - -
26/05:30pm 18.3 W 11 18 1011.6 - 0.0 - - - - - - -
26/05:00pm 19.0 WSW 14 22 1011.0 - 0.0 - - - - - - -
26/04:30pm 19.7 WSW 14 22 1010.8 - 0.0 - - - - - - -
26/04:00pm 20.4 WSW 16 22 1010.4 - 0.0 - - - - - - -
26/03:55pm 20.4 WSW 17 27 1010.3 - 0.0 - - - - - - -
26/03:30pm 20.6 WSW 21 28 1009.8 - 0.0 - - - - - - -
26/03:05pm 20.9 W 19 29 1009.4 - 0.0 - - - - - - -
26/03:00pm 21.1 WSW 18 24 1009.3 - 0.0 - - - - - - -
26/02:43pm 21.1 WSW 18 30 1009.3 - 0.0 - - - - - - -
26/02:30pm 21.1 WSW 19 26 1009.2 - 0.0 - - - - - - -
26/02:00pm 21.1 WSW 18 27 1008.7 - 0.0 - - - - - - -
26/01:57pm 21.3 W 17 27 1008.7 - 0.0 - - - - - - -
26/01:44pm 21.5 W 15 25 1008.6 - 0.0 - - - - - - -
26/01:30pm 21.4 W 15 23 1008.5 - 0.0 - - - - - - -
26/01:00pm 21.0 WSW 17 25 1008.9 - 0.0 - - - - - - -
26/12:38pm 20.9 WSW 17 27 1008.9 - 0.0 - - - - - - -
26/12:30pm 20.9 WSW 16 23 1008.9 - 0.0 - - - - - - -
26/12:00pm 20.2 WSW 19 31 1008.9 - 0.0 - - - - - - -
26/11:53am 20.2 WSW 19 31 1008.9 - 0.0 - - - - - - -
26/11:49am 20.2 WSW 20 32 1008.9 - 0.0 - - - - - - -
26/11:30am 20.1 W 22 33 1008.5 - 0.0 - - - - - - -
26/11:00am 19.6 W 20 35 1008.8 - 0.0 - - - - - - -
26/10:30am 19.2 W 17 29 1008.8 - 0.0 - - - - - - -
26/10:00am 18.7 W 20 32 1009.2 - 0.0 - - - - - - -
26/09:35am 18.3 W 15 28 1009.3 - 0.0 - - - - - - -
26/09:30am 18.4 W 14 25 1009.5 - 0.0 - - - - - - -
26/09:00am 17.9 W 14 25 1009.8 - 0.0 - - - - - - -
26/08:30am 17.6 W 9 17 1010.5 - 0.0 - - - - - - -
26/08:00am 17.5 WNW 10 17 1010.5 - 0.0 - - - - - - -
26/07:30am 17.0 WNW 10 16 1010.4 - 0.0 - - - - - - -
26/07:00am 17.1 WNW 10 16 1009.9 - 0.0 - - - - - - -
26/06:30am 17.4 WNW 13 23 1009.5 - 0.0 - - - - - - -
26/06:00am 17.8 WNW 13 19 1009.2 - 0.0 - - - - - - -
26/05:30am 17.6 WNW 9 13 1009.0 - 0.0 - - - - - - -
26/05:00am 18.1 WNW 9 13 1008.7 - 0.0 - - - - - - -
26/04:30am 18.4 WNW 8 17 1008.6 - 0.0 - - - - - - -
26/04:00am 18.6 NW 6 12 1008.2 - 0.0 - - - - - - -
26/03:30am 19.0 WNW 9 14 1007.8 - 0.0 - - - - - - -
26/03:00am 19.6 W 5 9 1007.9 - 0.0 - - - - - - -
26/02:30am 19.3 WNW 6 11 1007.9 - 0.0 - - - - - - -
26/02:00am 19.7 NW 7 11 1007.9 - 0.0 - - - - - - -
26/01:30am 20.0 WNW 7 11 1007.9 - 0.0 - - - - - - -
26/01:00am 21.7 W 11 16 1008.0 - 0.0 - - - - - - -
26/12:30am 20.2 WNW 7 10 1008.3 - 0.0 - - - - - - -
26/12:00am 19.8 WNW 8 12 1008.4 - 0.0 - - - - - - -
 
Date/Time
EST
Temp

°C
Wind Pressure Rain
since 9am
mm
Weather Cloud Vis
km
Sea
Height
m
Swell
Dir
 
Speed
knots
Gust
knots
hPa Trend Height
m
Period
s
Dir
25/11:30pm 19.0 NNW 4 7 1008.5 - 0.0 - - - - - - -
25/11:00pm 19.6 NNW 5 9 1008.7 - 0.0 - - - - - - -
25/10:30pm 19.5 NW 4 6 1008.9 - 0.0 - - - - - - -
25/10:00pm 19.4 NW 5 8 1008.9 - 0.0 - - - - - - -
25/09:30pm 21.0 NNW 3 5 1009.2 - 0.0 - - - - - - -
25/09:00pm 21.6 NNW 4 6 1009.2 - 0.0 - - - - - - -
25/08:30pm 21.4 NNW 6 8 1009.2 - 0.0 - - - - - - -
25/08:00pm 21.7 NW 5 6 1009.2 - 0.0 - - - - - - -
25/07:30pm 23.9 N 9 13 1008.9 - 0.0 - - - - - - -
25/07:00pm 24.5 NNE 12 17 1008.6 - 0.0 - - - - - - -
25/06:30pm 24.3 NNE 10 13 1008.3 - 0.0 - - - - - - -
25/06:00pm 24.2 NE 11 14 1008.1 - 0.0 - - - - - - -
25/05:30pm 24.2 NE 10 14 1007.9 - 0.0 - - - - - - -
25/05:00pm 24.7 NNE 9 13 1007.8 - 0.0 - - - - - - -
25/04:30pm 25.0 NNE 10 16 1007.7 - 0.0 - - - - - - -
25/04:00pm 25.4 NNE 10 13 1007.6 - 0.0 - - - - - - -
25/03:30pm 25.9 NNE 9 12 1007.6 - 0.0 - - - - - - -
25/03:00pm 26.5 NNE 7 9 1007.5 - 0.0 - - - - - - -
25/02:30pm 27.4 NNE 7 9 1007.6 - 0.0 - - - - - - -
25/02:00pm 27.8 NE 5 7 1007.8 - 0.0 - - - - - - -
25/01:30pm 27.2 SW 3 6 1008.1 - 0.0 - - - - - - -
25/01:00pm 27.8 NNW 4 7 1008.2 - 0.0 - - - - - - -
25/12:30pm 27.0 W 5 8 1008.5 - 0.0 - - - - - - -
25/12:00pm 27.5 NNW 4 9 1008.8 - 0.0 - - - - - - -
25/11:30am 26.4 W 5 8 1009.3 - 0.0 - - - - - - -
25/11:00am 26.2 WNW 3 6 1009.7 - 0.0 - - - - - - -
25/10:30am 25.0 W 6 11 1010.1 - 0.0 - - - - - - -
25/10:00am 26.5 NNW 5 7 1010.4 - 0.0 - - - - - - -
25/09:30am 24.9 NW 5 8 1010.5 - 0.0 - - - - - - -
25/09:00am 24.3 NW 5 8 1010.8 - 0.0 - - - - - - -
25/08:30am 21.6 WNW 6 8 1010.7 - 0.0 - - - - - - -
25/08:00am 20.6 WNW 8 10 1010.4 - 0.0 - - - - - - -
25/07:30am 20.2 WNW 8 10 1010.2 - 0.0 - - - - - - -
25/07:00am 19.9 WNW 10 11 1010.0 - 0.0 - - - - - - -
25/06:30am 20.2 WNW 11 13 1009.6 - 0.0 - - - - - - -
25/06:00am 19.3 WNW 10 11 1009.4 - 0.0 - - - - - - -
25/05:30am 18.3 WNW 9 11 1009.2 - 0.0 - - - - - - -
25/05:00am 18.0 NW 7 9 1009.0 - 0.0 - - - - - - -
25/04:30am 18.5 NW 7 8 1008.8 - 0.0 - - - - - - -
25/04:00am 19.3 NW 6 8 1008.6 - 0.0 - - - - - - -
25/03:30am 19.0 NW 5 7 1008.6 - 0.0 - - - - - - -
25/03:00am 19.0 NNW 4 6 1008.7 - 0.0 - - - - - - -
25/02:30am 19.2 NNW 6 7 1008.8 - 0.0 - - - - - - -
25/02:00am 19.6 NNW 7 8 1008.9 - 0.0 - - - - - - -
25/01:30am 19.7 NNW 7 9 1009.1 - 0.0 - - - - - - -
25/01:00am 19.6 NNW 5 7 1009.2 - 0.0 - - - - - - -
25/12:30am 19.6 NW 4 6 1009.2 - 0.0 - - - - - - -
25/12:00am 19.7 NNW 5 8 1009.3 - 0.0 - - - - - - -
 
Date/Time
EST
Temp

°C
Wind Pressure Rain
since 9am
mm
Weather Cloud Vis
km
Sea
Height
m
Swell
Dir
 
Speed
knots
Gust
knots
hPa Trend Height
m
Period
s
Dir
24/11:30pm 18.8 NW 5 7 1009.5 - 0.0 - - - - - - -
24/11:00pm 18.6 NW 5 7 1009.4 - 0.0 - - - - - - -
24/10:30pm 19.0 NW 4 6 1009.4 - 0.0 - - - - - - -
24/10:00pm 19.2 E 3 6 1009.6 - 0.0 - - - - - - -
24/09:30pm 19.3 NW 4 6 1009.7 - 0.0 - - - - - - -
24/09:00pm 19.4 NNE 4 7 1009.5 - 0.0 - - - - - - -
24/08:30pm 19.2 NW 5 7 1009.4 - 0.0 - - - - - - -
24/08:00pm 19.9 NW 5 7 1009.4 - 0.0 - - - - - - -
24/07:30pm 21.1 NW 4 5 1009.3 - 0.0 - - - - - - -
24/07:00pm 22.3 N 5 11 1009.1 - 0.0 - - - - - - -
24/06:30pm 22.6 N 9 11 1008.8 - 0.0 - - - - - - -
24/06:00pm 22.6 N 8 10 1008.4 - 0.0 - - - - - - -
24/05:30pm 22.8 NNE 7 10 1008.0 - 0.0 - - - - - - -
24/05:00pm 23.0 NE 8 11 1007.9 - 0.0 - - - - - - -
24/04:30pm 23.3 NE 10 13 1007.8 - 0.0 - - - - - - -
24/04:00pm 24.1 NE 9 11 1007.9 - 0.0 - - - - - - -
24/03:30pm 24.4 NE 9 11 1007.6 - 0.0 - - - - - - -
24/03:00pm 25.5 ENE 8 11 1007.5 - 0.0 - - - - - - -
24/02:30pm 25.6 ENE 9 12 1007.7 - 0.0 - - - - - - -
24/02:00pm 25.3 ENE 8 10 1008.0 - 0.0 - - - - - - -
24/01:30pm 25.3 NE 10 11 1008.0 - 0.0 - - - - - - -
24/01:00pm 25.4 NE 8 11 1008.4 - 0.0 - - - - - - -
24/12:30pm 25.0 NE 6 8 1008.8 - 0.0 - - - - - - -
24/12:00pm 25.2 NNE 3 6 1009.2 - 0.0 - - - - - - -
24/11:30am 24.8 N 2 5 1009.8 - 0.0 - - - - - - -
24/11:00am 23.3 WNW 2 5 1009.7 - 0.0 - - - - - - -
24/10:30am 22.3 WNW 2 4 1010.2 - 0.0 - - - - - - -
24/10:00am 22.3 WSW 4 5 1010.2 - 0.0 - - - - - - -
24/09:30am 21.5 WSW 4 6 1010.7 - 0.0 - - - - - - -
24/09:00am 20.7 WSW 5 6 1010.8 - 0.0 - - - - - - -
24/08:30am 20.6 WSW 6 8 1010.8 - 0.0 - - - - - - -
24/08:00am 20.2 W 2 5 1010.7 - 0.0 - - - - - - -
24/07:30am 19.5 W 4 5 1010.2 - 0.0 - - - - - - -
24/07:00am 18.9 W 6 7 1010.2 - 0.0 - - - - - - -
24/06:30am 18.4 WNW 5 7 1010.1 - 0.0 - - - - - - -
24/06:00am 18.4 WNW 6 7 1009.9 - 0.0 - - - - - - -
24/05:30am 18.5 W 7 8 1009.5 - 0.0 - - - - - - -
24/05:00am 18.2 WNW 7 8 1009.3 - 0.0 - - - - - - -
24/04:30am 18.2 WNW 5 8 1009.4 - 0.0 - - - - - - -
24/04:00am 18.5 WNW 7 8 1009.3 - 0.0 - - - - - - -
24/03:30am 18.2 WNW 6 8 1009.3 - 0.0 - - - - - - -
24/03:00am 18.1 WNW 5 8 1009.6 - 0.0 - - - - - - -
24/02:30am 18.1 WNW 6 9 1009.8 - 0.0 - - - - - - -
24/02:00am 18.3 WNW 6 8 1009.9 - 0.0 - - - - - - -

Other Formats:

Comma delimited format used in spreadsheet applications
http://www.bom.gov.au/fwo/IDN60701/IDN60701.94599.axf

JavaScript Object Notation format (JSON) in row-major order
http://www.bom.gov.au/fwo/IDN60701/IDN60701.94599.json